Ava Foss — WDF5779 — position and weather

sailwx.info

Track history (hours):
 
Tides and Currents Weather Stations Pressure Air Temp Water Temp Dewpoint Dewpoint Depression Visibility Wind Speed Wind Dir Waves Ship Positions

Ava Foss

Owner: Foss Maritime Company, Seattle, WA. More information available from US FCC via Universal Licensing System and Coast Guard Vessel Documentation Center.

Last reported at 2014-Oct-31 11:29 UTC. Time now 2014-Oct-31 12:14 UTC.
Position N 33°51' W 118°24'.

Length 10 m; draft 2.5 m.

Type: Passenger vessel. MMSI: 367467120.

Date/timePositionNaut miles runAvg speedWind from/ knotsBaromVisibWave heightAir tempDewpointWater temp
2014-Oct-31 11:29N 33°51' W 118°24'0 0.0
2014-Oct-31 10:32N 33°51' W 118°24'0 0.0
2014-Oct-31 09:32N 33°51' W 118°24'0 0.0
2014-Oct-31 08:32N 33°51' W 118°24'0 0.0
2014-Oct-31 07:23N 33°51' W 118°24'0 0.0
2014-Oct-31 01:23N 33°51' W 118°24'1 0.7
2014-Oct-31 00:33N 33°51' W 118°24'1 0.6
2014-Oct-30 23:33N 33°51' W 118°24'0 0.0
2014-Oct-30 22:33N 33°51' W 118°24'0 0.0
2014-Oct-30 21:33N 33°51' W 118°24'0 0.0
2014-Oct-30 20:33N 33°51' W 118°24'0 0.0
2014-Oct-30 19:33N 33°51' W 118°24'0 0.3
2014-Oct-30 18:33N 33°51' W 118°24'0 0.3
2014-Oct-30 17:33N 33°51' W 118°24'0 0.0
2014-Oct-30 16:33N 33°51' W 118°24'0 0.0
2014-Oct-30 15:33N 33°51' W 118°24'0 0.0
2014-Oct-30 14:33N 33°51' W 118°24'5 4.1
2014-Oct-30 13:25N 33°54' W 118°26'5 4.4
2014-Oct-30 12:23N 33°51' W 118°24'0 0.0
2014-Oct-30 11:32N 33°51' W 118°24'0 0.0
2014-Oct-30 10:29N 33°51' W 118°24'0 0.0
2014-Oct-30 09:29N 33°51' W 118°24'0 0.0
2014-Oct-30 08:32N 33°51' W 118°24'0 0.0
2014-Oct-30 07:32N 33°51' W 118°24'0 0.0
2014-Oct-30 06:11N 33°51' W 118°24'0 0.0
2014-Oct-30 04:29N 33°51' W 118°24'0 0.0
2014-Oct-30 02:23N 33°51' W 118°24'0 0.0
2014-Oct-30 01:29N 33°51' W 118°24'3 3.0
2014-Oct-30 00:33N 33°53' W 118°25'3 2.6
2014-Oct-29 23:34N 33°50' W 118°24'0 0.3
2014-Oct-29 22:32N 33°51' W 118°24'0 0.0
2014-Oct-29 21:32N 33°51' W 118°24'5 4.6
2014-Oct-29 20:29N 33°55' W 118°27'0 0.3
2014-Oct-29 19:30N 33°54' W 118°26'1 0.8
2014-Oct-29 18:33N 33°55' W 118°27'5 5.3
2014-Oct-29 17:33N 33°51' W 118°24'0 0.0
2014-Oct-29 16:33N 33°51' W 118°24'0 0.0
2014-Oct-29 15:33N 33°51' W 118°24'0 0.0
2014-Oct-29 14:33N 33°51' W 118°24'2 1.8
2014-Oct-29 13:33N 33°52' W 118°25'2 1.8
2014-Oct-29 12:33N 33°51' W 118°24'0 0.0
2014-Oct-29 11:33N 33°51' W 118°24'0 0.0
2014-Oct-29 10:33N 33°51' W 118°24'0 0.0
2014-Oct-29 09:27N 33°51' W 118°24'0 0.0
2014-Oct-29 08:33N 33°51' W 118°24'0 0.0
2014-Oct-29 07:33N 33°51' W 118°24'0 0.0
2014-Oct-29 06:27N 33°51' W 118°24'0 0.0
2014-Oct-29 05:30N 33°51' W 118°24'0 0.0
2014-Oct-29 04:30N 33°51' W 118°24'0 0.0
2014-Oct-29 03:30N 33°51' W 118°24'0 0.0
2014-Oct-29 02:33N 33°51' W 118°24'0 0.0
2014-Oct-29 01:33N 33°51' W 118°24'0 0.0
2014-Oct-29 00:33N 33°51' W 118°24'0 0.0
2014-Oct-28 23:34N 33°51' W 118°24'2 2.3
2014-Oct-28 22:33N 33°52' W 118°26'3 2.7
2014-Oct-28 21:31N 33°54' W 118°28'1 0.8
2014-Oct-28 20:28N 33°54' W 118°29'6 6.5
2014-Oct-28 19:33N 33°51' W 118°24'0 0.0
2014-Oct-28 18:33N 33°51' W 118°24'0 0.0
2014-Oct-28 17:30N 33°51' W 118°24'0 0.0
2014-Oct-28 16:33N 33°51' W 118°24'0 0.0
2014-Oct-28 15:33N 33°51' W 118°24'0 0.0
2014-Oct-28 14:33N 33°51' W 118°24'5 5.0
2014-Oct-28 13:33N 33°54' W 118°28'5 4.9
2014-Oct-28 12:33N 33°51' W 118°24'0 0.0
2014-Oct-28 04:32N 33°51' W 118°24'0 0.1
2014-Oct-28 03:33N 33°51' W 118°24'  
2014-Oct-25 03:33N 33°53' W 118°26'3 3.2
2014-Oct-25 02:34N 33°51' W 118°24'6 0.4
2014-Oct-24 09:22N 33°55' W 118°29'6 7.5
2014-Oct-24 08:33N 33°51' W 118°24'0 0.0
2014-Oct-24 07:33N 33°51' W 118°24'0 0.0
2014-Oct-24 06:30N 33°51' W 118°24'0 0.0
2014-Oct-24 05:33N 33°51' W 118°24'0 0.0
2014-Oct-24 04:30N 33°51' W 118°24'0 0.0
2014-Oct-24 03:33N 33°51' W 118°24'0 0.0
2014-Oct-24 02:33N 33°51' W 118°24'0 0.0
2014-Oct-24 01:33N 33°51' W 118°24'3 3.1
2014-Oct-24 00:32N 33°53' W 118°26'3 3.2
2014-Oct-23 23:33N 33°51' W 118°24'0 0.0
2014-Oct-23 22:33N 33°51' W 118°24'0 0.0
2014-Oct-23 21:33N 33°51' W 118°24'0 0.0
2014-Oct-23 16:10N 33°51' W 118°24'0 0.0
2014-Oct-23 15:33N 33°51' W 118°24'0 0.5
2014-Oct-23 14:34N 33°50' W 118°24'3 2.4
2014-Oct-23 13:29N 33°51' W 118°27'3 3.2
2014-Oct-23 12:33N 33°51' W 118°24'0 0.0
2014-Oct-23 11:31N 33°51' W 118°24'0 0.0
2014-Oct-23 10:28N 33°51' W 118°24'0 0.0
2014-Oct-23 09:31N 33°51' W 118°24'0 0.0
2014-Oct-23 08:31N 33°51' W 118°24'0 0.0
2014-Oct-23 07:31N 33°51' W 118°24'5 4.7
2014-Oct-23 06:32N 33°54' W 118°27'5 4.7
2014-Oct-23 05:33N 33°51' W 118°24'0 0.0
2014-Oct-23 04:33N 33°51' W 118°24'0 0.0
2014-Oct-23 03:33N 33°51' W 118°24'0 0.0
2014-Oct-23 02:33N 33°51' W 118°24'0 0.0
2014-Oct-23 01:33N 33°51' W 118°24'0 0.0
2014-Oct-23 00:33N 33°51' W 118°24'0 0.0
2014-Oct-22 23:32N 33°51' W 118°24'0 0.5
2014-Oct-22 22:34N 33°51' W 118°24'0 0.5
2014-Oct-22 21:33N 33°51' W 118°24'0 0.0
2014-Oct-22 20:33N 33°51' W 118°24'5 4.6
2014-Oct-22 19:33N 33°54' W 118°27'5 4.6
2014-Oct-22 18:33N 33°50' W 118°24'0 0.2
2014-Oct-22 17:33N 33°51' W 118°24'0 0.0
2014-Oct-22 16:33N 33°51' W 118°24'0 0.0
2014-Oct-22 15:33N 33°51' W 118°24'0 0.0
2014-Oct-22 14:33N 33°51' W 118°24'0 0.0
2014-Oct-22 13:33N 33°51' W 118°24'0 0.0
2014-Oct-22 12:33N 33°51' W 118°24'0 0.0
2014-Oct-22 11:30N 33°51' W 118°24'0 0.0
2014-Oct-22 10:33N 33°51' W 118°24'0 0.0
2014-Oct-22 09:24N 33°51' W 118°24'0 0.0
2014-Oct-22 08:33N 33°51' W 118°24'0 0.0
2014-Oct-22 07:33N 33°51' W 118°24'0 0.0
2014-Oct-22 06:33N 33°51' W 118°24'0 0.0
2014-Oct-22 05:30N 33°51' W 118°24'0 0.0
2014-Oct-22 04:33N 33°51' W 118°24'0 0.0
2014-Oct-22 03:33N 33°51' W 118°24'0 0.0
2014-Oct-22 02:33N 33°51' W 118°24'1 1.0
2014-Oct-22 01:34N 33°51' W 118°25'1 1.0
2014-Oct-22 00:33N 33°51' W 118°24'0 0.0
2014-Oct-21 23:33N 33°51' W 118°24'0 0.0
2014-Oct-21 22:32N 33°51' W 118°24'2 1.8
2014-Oct-21 21:33N 33°51' W 118°26'2 1.8
2014-Oct-21 20:33N 33°51' W 118°24'0 0.0
2014-Oct-21 19:33N 33°51' W 118°24'0 0.0
2014-Oct-21 18:33N 33°51' W 118°24'0 0.0
2014-Oct-21 17:31N 33°51' W 118°24'0 0.0
2014-Oct-21 16:31N 33°51' W 118°24'0 0.0
2014-Oct-21 15:31N 33°51' W 118°24'0 0.0
2014-Oct-21 14:31N 33°51' W 118°24'0 0.1
2014-Oct-21 13:31N 33°51' W 118°24'0 0.1
2014-Oct-21 12:31N 33°51' W 118°24'0 0.0
2014-Oct-21 11:31N 33°51' W 118°24'  
Track history (hours):
 
Tides and Currents Weather Stations Pressure Air Temp Water Temp Dewpoint Dewpoint Depression Visibility Wind Speed Wind Dir Waves Ship Positions

Ava Foss

Owner: Foss Maritime Company, Seattle, WA. More information available from US FCC via Universal Licensing System and Coast Guard Vessel Documentation Center.

Last reported at 2014-Oct-31 11:29 UTC. Time now 2014-Oct-31 12:14 UTC.
Position N 33°51' W 118°24'.

Length 10 m; draft 2.5 m.

Type: Passenger vessel. MMSI: 367467120.

Date/timePositionNaut miles runAvg speedWind from/ knotsBaromVisibWave heightAir tempDewpointWater temp
2014-Oct-31 11:29N 33°51' W 118°24'0 0.0
2014-Oct-31 10:32N 33°51' W 118°24'0 0.0
2014-Oct-31 09:32N 33°51' W 118°24'0 0.0
2014-Oct-31 08:32N 33°51' W 118°24'0 0.0
2014-Oct-31 07:23N 33°51' W 118°24'0 0.0
2014-Oct-31 01:23N 33°51' W 118°24'1 0.7
2014-Oct-31 00:33N 33°51' W 118°24'1 0.6
2014-Oct-30 23:33N 33°51' W 118°24'0 0.0
2014-Oct-30 22:33N 33°51' W 118°24'0 0.0
2014-Oct-30 21:33N 33°51' W 118°24'0 0.0
2014-Oct-30 20:33N 33°51' W 118°24'0 0.0
2014-Oct-30 19:33N 33°51' W 118°24'0 0.3
2014-Oct-30 18:33N 33°51' W 118°24'0 0.3
2014-Oct-30 17:33N 33°51' W 118°24'0 0.0
2014-Oct-30 16:33N 33°51' W 118°24'0 0.0
2014-Oct-30 15:33N 33°51' W 118°24'0 0.0
2014-Oct-30 14:33N 33°51' W 118°24'5 4.1
2014-Oct-30 13:25N 33°54' W 118°26'5 4.4
2014-Oct-30 12:23N 33°51' W 118°24'0 0.0
2014-Oct-30 11:32N 33°51' W 118°24'0 0.0
2014-Oct-30 10:29N 33°51' W 118°24'0 0.0
2014-Oct-30 09:29N 33°51' W 118°24'0 0.0
2014-Oct-30 08:32N 33°51' W 118°24'0 0.0
2014-Oct-30 07:32N 33°51' W 118°24'0 0.0
2014-Oct-30 06:11N 33°51' W 118°24'0 0.0
2014-Oct-30 04:29N 33°51' W 118°24'0 0.0
2014-Oct-30 02:23N 33°51' W 118°24'0 0.0
2014-Oct-30 01:29N 33°51' W 118°24'3 3.0
2014-Oct-30 00:33N 33°53' W 118°25'3 2.6
2014-Oct-29 23:34N 33°50' W 118°24'0 0.3
2014-Oct-29 22:32N 33°51' W 118°24'0 0.0
2014-Oct-29 21:32N 33°51' W 118°24'5 4.6
2014-Oct-29 20:29N 33°55' W 118°27'0 0.3
2014-Oct-29 19:30N 33°54' W 118°26'1 0.8
2014-Oct-29 18:33N 33°55' W 118°27'5 5.3
2014-Oct-29 17:33N 33°51' W 118°24'0 0.0
2014-Oct-29 16:33N 33°51' W 118°24'0 0.0
2014-Oct-29 15:33N 33°51' W 118°24'0 0.0
2014-Oct-29 14:33N 33°51' W 118°24'2 1.8
2014-Oct-29 13:33N 33°52' W 118°25'2 1.8
2014-Oct-29 12:33N 33°51' W 118°24'0 0.0
2014-Oct-29 11:33N 33°51' W 118°24'0 0.0
2014-Oct-29 10:33N 33°51' W 118°24'0 0.0
2014-Oct-29 09:27N 33°51' W 118°24'0 0.0
2014-Oct-29 08:33N 33°51' W 118°24'0 0.0
2014-Oct-29 07:33N 33°51' W 118°24'0 0.0
2014-Oct-29 06:27N 33°51' W 118°24'0 0.0
2014-Oct-29 05:30N 33°51' W 118°24'0 0.0
2014-Oct-29 04:30N 33°51' W 118°24'0 0.0
2014-Oct-29 03:30N 33°51' W 118°24'0 0.0
2014-Oct-29 02:33N 33°51' W 118°24'0 0.0
2014-Oct-29 01:33N 33°51' W 118°24'0 0.0
2014-Oct-29 00:33N 33°51' W 118°24'0 0.0
2014-Oct-28 23:34N 33°51' W 118°24'2 2.3
2014-Oct-28 22:33N 33°52' W 118°26'3 2.7
2014-Oct-28 21:31N 33°54' W 118°28'1 0.8
2014-Oct-28 20:28N 33°54' W 118°29'6 6.5
2014-Oct-28 19:33N 33°51' W 118°24'0 0.0
2014-Oct-28 18:33N 33°51' W 118°24'0 0.0
2014-Oct-28 17:30N 33°51' W 118°24'0 0.0
2014-Oct-28 16:33N 33°51' W 118°24'0 0.0
2014-Oct-28 15:33N 33°51' W 118°24'0 0.0
2014-Oct-28 14:33N 33°51' W 118°24'5 5.0
2014-Oct-28 13:33N 33°54' W 118°28'5 4.9
2014-Oct-28 12:33N 33°51' W 118°24'0 0.0
2014-Oct-28 04:32N 33°51' W 118°24'0 0.1
2014-Oct-28 03:33N 33°51' W 118°24'  
2014-Oct-25 03:33N 33°53' W 118°26'3 3.2
2014-Oct-25 02:34N 33°51' W 118°24'6 0.4
2014-Oct-24 09:22N 33°55' W 118°29'6 7.5
2014-Oct-24 08:33N 33°51' W 118°24'0 0.0
2014-Oct-24 07:33N 33°51' W 118°24'0 0.0
2014-Oct-24 06:30N 33°51' W 118°24'0 0.0
2014-Oct-24 05:33N 33°51' W 118°24'0 0.0
2014-Oct-24 04:30N 33°51' W 118°24'0 0.0
2014-Oct-24 03:33N 33°51' W 118°24'0 0.0
2014-Oct-24 02:33N 33°51' W 118°24'0 0.0
2014-Oct-24 01:33N 33°51' W 118°24'3 3.1
2014-Oct-24 00:32N 33°53' W 118°26'3 3.2
2014-Oct-23 23:33N 33°51' W 118°24'0 0.0
2014-Oct-23 22:33N 33°51' W 118°24'0 0.0
2014-Oct-23 21:33N 33°51' W 118°24'0 0.0
2014-Oct-23 16:10N 33°51' W 118°24'0 0.0
2014-Oct-23 15:33N 33°51' W 118°24'0 0.5
2014-Oct-23 14:34N 33°50' W 118°24'3 2.4
2014-Oct-23 13:29N 33°51' W 118°27'3 3.2
2014-Oct-23 12:33N 33°51' W 118°24'0 0.0
2014-Oct-23 11:31N 33°51' W 118°24'0 0.0
2014-Oct-23 10:28N 33°51' W 118°24'0 0.0
2014-Oct-23 09:31N 33°51' W 118°24'0 0.0
2014-Oct-23 08:31N 33°51' W 118°24'0 0.0
2014-Oct-23 07:31N 33°51' W 118°24'5 4.7
2014-Oct-23 06:32N 33°54' W 118°27'5 4.7
2014-Oct-23 05:33N 33°51' W 118°24'0 0.0
2014-Oct-23 04:33N 33°51' W 118°24'0 0.0
2014-Oct-23 03:33N 33°51' W 118°24'0 0.0
2014-Oct-23 02:33N 33°51' W 118°24'0 0.0
2014-Oct-23 01:33N 33°51' W 118°24'0 0.0
2014-Oct-23 00:33N 33°51' W 118°24'0 0.0
2014-Oct-22 23:32N 33°51' W 118°24'0 0.5
2014-Oct-22 22:34N 33°51' W 118°24'0 0.5
2014-Oct-22 21:33N 33°51' W 118°24'0 0.0
2014-Oct-22 20:33N 33°51' W 118°24'5 4.6
2014-Oct-22 19:33N 33°54' W 118°27'5 4.6
2014-Oct-22 18:33N 33°50' W 118°24'0 0.2
2014-Oct-22 17:33N 33°51' W 118°24'0 0.0
2014-Oct-22 16:33N 33°51' W 118°24'0 0.0
2014-Oct-22 15:33N 33°51' W 118°24'0 0.0
2014-Oct-22 14:33N 33°51' W 118°24'0 0.0
2014-Oct-22 13:33N 33°51' W 118°24'0 0.0
2014-Oct-22 12:33N 33°51' W 118°24'0 0.0
2014-Oct-22 11:30N 33°51' W 118°24'0 0.0
2014-Oct-22 10:33N 33°51' W 118°24'0 0.0
2014-Oct-22 09:24N 33°51' W 118°24'0 0.0
2014-Oct-22 08:33N 33°51' W 118°24'0 0.0
2014-Oct-22 07:33N 33°51' W 118°24'0 0.0
2014-Oct-22 06:33N 33°51' W 118°24'0 0.0
2014-Oct-22 05:30N 33°51' W 118°24'0 0.0
2014-Oct-22 04:33N 33°51' W 118°24'0 0.0
2014-Oct-22 03:33N 33°51' W 118°24'0 0.0
2014-Oct-22 02:33N 33°51' W 118°24'1 1.0
2014-Oct-22 01:34N 33°51' W 118°25'1 1.0
2014-Oct-22 00:33N 33°51' W 118°24'0 0.0
2014-Oct-21 23:33N 33°51' W 118°24'0 0.0
2014-Oct-21 22:32N 33°51' W 118°24'2 1.8
2014-Oct-21 21:33N 33°51' W 118°26'2 1.8
2014-Oct-21 20:33N 33°51' W 118°24'0 0.0
2014-Oct-21 19:33N 33°51' W 118°24'0 0.0
2014-Oct-21 18:33N 33°51' W 118°24'0 0.0
2014-Oct-21 17:31N 33°51' W 118°24'0 0.0
2014-Oct-21 16:31N 33°51' W 118°24'0 0.0
2014-Oct-21 15:31N 33°51' W 118°24'0 0.0
2014-Oct-21 14:31N 33°51' W 118°24'0 0.1
2014-Oct-21 13:31N 33°51' W 118°24'0 0.1
2014-Oct-21 12:31N 33°51' W 118°24'0 0.0
2014-Oct-21 11:31N 33°51' W 118°24'  

Dump ship's entire track history